Terminal Aerodrome Forecast
Issued by NWS

Home | Current Version | Previous Version | Text Only | Print | Product List | Glossary On
Versions: 1 2 3 4 5 6 7 8 9 10 11 12 13 14 15 16 17 18 19 20 21 22 23 24 25 26 27 28 29 30
691
FTUS44 KLZK 222327
TAFHOT
TAF
KHOT 222327Z 2300/2324 19006KT P6SM VCSH OVC050
     FM231000 22003KT P6SM VCSH BKN020 OVC040
      TEMPO 2312/2316 5SM -SHRA BR OVC020
     FM231600 22005KT P6SM -SHRA VCTS BKN020 OVC050CB PROB30
      2316/2322 4SM -TSRA BR BKN015 OVC035CB=

USA.gov is the U.S. government's official web portal to all federal, state and local government web resources and services.